Time;durP1;ratioP1;P1;durP2;ratioP2;P2;SDS_P1;SDS_P2;PMS_P1;PMS_P2;Temp;Humidity;BMP_temperature;BMP_pressure;BME280_temperature;BME280_humidity;BME280_pressure;Samples;Min_cycle;Max_cycle;Signal;HPM_P1;HPM_P2
2022/10/27 00:00:53;;;;;;;0.50;0.50;;;21.80;67.10;;;21.90;49.29;95789.66;4979456;28;20220;-78
2022/10/27 00:03:21;;;;;;;0.50;0.50;;;21.80;67.10;;;21.90;49.67;95788.84;4978242;28;20205;-77
2022/10/27 00:05:48;;;;;;;0.40;0.40;;;21.80;67.00;;;21.93;49.57;95788.34;4946401;28;20686;-77
2022/10/27 00:08:19;;;;;;;0.40;0.40;;;21.80;67.00;;;21.84;49.75;95779.13;4945964;28;20215;-77
2022/10/27 00:10:58;;;;;;;0.40;0.40;;;21.80;67.00;;;21.89;49.62;95793.38;4945425;28;20233;-77
2022/10/27 00:13:26;;;;;;;0.40;0.40;;;21.80;66.90;;;21.92;49.50;95794.75;4946268;28;20521;-77
2022/10/27 00:16:06;;;;;;;0.30;0.30;;;21.80;67.00;;;21.88;49.32;95793.63;4946050;28;20194;-77
2022/10/27 00:18:34;;;;;;;0.35;0.35;;;21.80;66.90;;;21.90;49.31;95796.88;4945926;28;20535;-77
2022/10/27 00:21:05;;;;;;;0.40;0.40;;;21.80;66.90;;;21.90;49.25;95803.00;4945844;28;20274;-77
2022/10/27 00:23:33;;;;;;;0.40;0.40;;;21.80;67.00;;;21.89;49.43;95805.94;4961419;28;20297;-77
2022/10/27 00:26:01;;;;;;;0.40;0.40;;;21.80;66.90;;;21.82;49.42;95794.59;4929918;28;20206;-77
2022/10/27 00:28:29;;;;;;;0.30;0.30;;;21.80;66.90;;;21.87;49.29;95805.34;4930208;28;20301;-77
2022/10/27 00:31:15;;;;;;;0.40;0.40;;;21.80;66.90;;;21.90;49.33;95810.22;4961537;28;20242;-77
2022/10/27 00:33:44;;;;;;;0.50;0.50;;;21.80;66.90;;;21.84;49.27;95805.84;4945762;28;20187;-77
2022/10/27 00:36:15;;;;;;;0.40;0.40;;;21.80;66.90;;;21.88;49.41;95813.09;4961541;28;20257;-77
2022/10/27 00:38:42;;;;;;;0.40;0.40;;;21.80;66.90;;;21.89;49.52;95812.06;4945573;28;20217;-77
2022/10/27 00:41:26;;;;;;;0.40;0.40;;;21.80;66.90;;;21.89;49.43;95813.94;4961216;28;20266;-77
2022/10/27 00:43:53;;;;;;;0.40;0.40;;;21.80;66.90;;;21.87;49.61;95816.03;4961687;28;20198;-77
2022/10/27 00:46:45;;;;;;;0.30;0.30;;;21.80;66.90;;;21.87;49.24;95824.03;4945856;28;20504;-77
2022/10/27 00:49:18;;;;;;;0.40;0.40;;;21.80;66.80;;;21.82;49.40;95819.41;4961537;28;20207;-78
2022/10/27 00:51:52;;;;;;;0.43;0.43;;;21.80;66.90;;;21.87;49.03;95827.53;4945673;28;20220;-78
2022/10/27 00:54:21;;;;;;;0.45;0.45;;;21.80;66.80;;;21.83;49.55;95817.56;4945718;28;20192;-78
2022/10/27 00:56:51;;;;;;;0.40;0.40;;;21.80;66.80;;;21.87;49.48;95826.72;4961594;28;20209;-78
2022/10/27 00:59:19;;;;;;;0.40;0.40;;;21.80;66.80;;;21.87;49.53;95827.53;4946125;28;20204;-78
2022/10/27 01:01:49;;;;;;;0.40;0.40;;;21.80;66.90;;;21.88;49.09;95820.31;4929490;28;20264;-78
2022/10/27 01:04:46;;;;;;;0.40;0.40;;;21.80;66.90;;;21.87;49.36;95827.53;4961496;28;20242;-78
2022/10/27 01:07:16;;;;;;;0.40;0.40;;;21.80;66.80;;;21.88;49.26;95833.69;4977138;28;20212;-78
2022/10/27 01:09:45;;;;;;;0.35;0.35;;;21.80;66.80;;;21.87;49.45;95837.41;4961178;28;20202;-78
2022/10/27 01:12:12;;;;;;;0.40;0.40;;;21.80;66.80;;;21.85;49.06;95832.31;4929396;28;20198;-78
2022/10/27 01:14:39;;;;;;;0.40;0.40;;;21.80;66.80;;;21.75;49.33;95814.25;4944842;28;20202;-78
2022/10/27 01:17:46;;;;;;;0.40;0.40;;;21.80;66.80;;;21.87;49.49;95832.06;4961226;28;20203;-78
2022/10/27 01:20:41;;;;;;;0.40;0.40;;;21.80;66.80;;;21.85;49.21;95829.63;4960853;28;20195;-78
2022/10/27 01:23:34;;;;;;;0.30;0.30;;;21.80;66.70;;;21.82;49.62;95824.75;4960852;28;20197;-78
2022/10/27 01:26:50;;;;;;;0.50;0.50;;;21.80;66.70;;;21.79;49.46;95821.75;4945154;28;20202;-78
2022/10/27 01:29:48;;;;;;;0.50;0.50;;;21.70;66.80;;;21.81;49.54;95831.16;4904349;28;20567;-78
2022/10/27 01:32:32;;;;;;;0.40;0.40;;;21.70;66.60;;;21.80;49.32;95831.41;4960443;28;20182;-78
2022/10/27 01:35:16;;;;;;;0.50;0.50;;;21.70;66.70;;;21.80;49.24;95836.72;4976723;28;20204;-78
2022/10/27 01:37:53;;;;;;;0.40;0.40;;;21.70;66.70;;;21.79;49.10;95827.09;4977822;28;20209;-78
2022/10/27 01:40:48;;;;;;;0.43;0.43;;;21.70;66.70;;;21.80;49.24;95840.22;4944620;28;20541;-78
2022/10/27 01:43:20;;;;;;;0.50;0.50;;;21.70;66.70;;;21.78;49.55;95834.31;4944796;28;20194;-78
2022/10/27 01:45:49;;;;;;;0.40;0.40;;;21.70;66.70;;;21.78;49.27;95828.97;4944781;28;20195;-78
2022/10/27 01:48:17;;;;;;;0.40;0.40;;;21.70;66.70;;;21.82;49.25;95831.97;4960938;28;20330;-78
2022/10/27 01:50:45;;;;;;;0.40;0.40;;;21.70;66.70;;;21.78;49.27;95825.50;4928993;28;20234;-78
2022/10/27 01:53:30;;;;;;;0.30;0.30;;;21.70;66.70;;;21.81;49.16;95841.03;4947260;28;20208;-78
2022/10/27 01:56:51;;;;;;;0.38;0.38;;;21.70;66.70;;;21.80;49.19;95842.06;4960772;28;20195;-78
2022/10/27 01:59:22;;;;;;;0.50;0.50;;;21.70;66.70;;;21.80;49.24;95839.41;4976719;28;20188;-78
2022/10/27 02:02:14;;;;;;;0.43;0.43;;;21.70;66.70;;;21.79;49.44;95843.94;4976526;28;20262;-78
2022/10/27 02:05:05;;;;;;;0.43;0.43;;;21.70;66.70;;;21.78;49.29;95847.66;4960558;28;20193;-78
2022/10/27 02:07:43;;;;;;;0.40;0.40;;;21.70;66.60;;;21.77;48.99;95850.59;4960573;28;20617;-78
2022/10/27 02:10:38;;;;;;;0.40;0.40;;;21.70;66.60;;;21.73;49.34;95839.56;4976229;28;20237;-78
2022/10/27 02:13:06;;;;;;;0.50;0.50;;;21.70;66.70;;;21.77;49.07;95846.03;4944772;28;20212;-77
2022/10/27 02:15:49;;;;;;;0.40;0.40;;;21.70;66.70;;;21.77;49.07;95843.38;4960528;28;20194;-77
2022/10/27 02:18:29;;;;;;;0.40;0.40;;;21.70;66.70;;;21.78;49.49;95845.00;4944259;28;20612;-77
2022/10/27 02:21:02;;;;;;;0.50;0.50;;;21.70;66.60;;;21.75;49.31;95843.63;4960764;28;20204;-77
2022/10/27 02:23:34;;;;;;;0.60;0.60;;;21.70;66.60;;;21.79;48.97;95848.47;4944623;28;20198;-77
2022/10/27 02:26:30;;;;;;;0.40;0.40;;;21.70;66.70;;;21.76;49.08;95844.41;4944153;28;20198;-78
2022/10/27 02:29:03;;;;;;;0.43;0.43;;;21.70;66.60;;;21.78;49.27;95841.53;4953538;28;20680;-77
2022/10/27 02:31:36;;;;;;;0.43;0.43;;;21.70;66.60;;;21.78;49.04;95836.97;4927820;28;20229;-77
2022/10/27 02:34:04;;;;;;;0.40;0.40;;;21.70;66.60;;;21.78;48.96;95831.63;4943780;28;20606;-77
2022/10/27 02:36:32;;;;;;;0.50;0.50;;;21.70;66.60;;;21.75;49.37;95835.59;4959887;28;20258;-77
2022/10/27 02:38:59;;;;;;;0.50;0.50;;;21.70;66.60;;;21.75;49.27;95830.25;4944212;28;20213;-77
2022/10/27 02:41:26;;;;;;;0.50;0.50;;;21.70;66.70;;;21.81;48.96;95846.38;4959882;28;20198;-77
2022/10/27 02:43:54;;;;;;;0.30;0.30;;;21.70;66.60;;;21.78;49.15;95841.53;4959792;28;20198;-77
2022/10/27 02:46:22;;;;;;;0.40;0.40;;;21.70;66.60;;;21.78;49.29;95839.66;4960230;28;20199;-77
2022/10/27 02:48:49;;;;;;;0.40;0.40;;;21.70;66.60;;;21.81;48.87;95843.69;4959990;28;20202;-77
2022/10/27 02:51:16;;;;;;;0.40;0.40;;;21.70;66.60;;;21.78;48.89;95842.31;4943487;28;20223;-77
2022/10/27 02:53:43;;;;;;;0.40;0.40;;;21.70;66.50;;;21.73;48.87;95837.69;4943480;28;20206;-77
2022/10/27 02:56:11;;;;;;;0.40;0.40;;;21.70;66.60;;;21.82;49.20;95848.00;4962136;28;20194;-77
2022/10/27 02:58:38;;;;;;;0.45;0.45;;;21.70;66.60;;;21.83;49.21;95857.63;4947338;28;20549;-77
2022/10/27 03:01:05;;;;;;;0.40;0.40;;;21.70;66.60;;;21.74;49.21;95843.88;4962922;28;20222;-77
2022/10/27 03:03:32;;;;;;;0.40;0.40;;;21.70;66.60;;;21.83;48.93;95852.28;4978893;28;20591;-77
2022/10/27 03:06:00;;;;;;;0.40;0.40;;;21.70;66.50;;;21.81;49.10;95860.53;4946758;28;20208;-77
2022/10/27 03:08:27;;;;;;;0.47;0.47;;;21.70;66.60;;;21.83;49.00;95858.44;4978789;28;20196;-77
2022/10/27 03:10:54;;;;;;;0.40;0.40;;;21.70;66.60;;;21.83;49.02;95862.97;4962753;28;20546;-77
2022/10/27 03:13:21;;;;;;;0.40;0.40;;;21.70;66.50;;;21.80;49.29;95858.09;4979635;28;20195;-77
2022/10/27 03:15:49;;;;;;;0.40;0.40;;;21.70;66.40;;;21.79;48.79;95862.66;4946898;28;20250;-77
2022/10/27 03:18:16;;;;;;;0.40;0.40;;;21.70;66.50;;;21.75;49.03;95850.78;4962574;28;20281;-77
2022/10/27 03:20:47;;;;;;;0.40;0.40;;;21.70;66.40;;;21.81;49.17;95863.19;4978489;28;20225;-77
2022/10/27 03:23:14;;;;;;;0.45;0.45;;;21.70;66.40;;;21.83;49.07;95877.13;4962321;28;20207;-77
2022/10/27 03:25:43;;;;;;;0.57;0.57;;;21.70;66.40;;;21.79;49.17;95872.50;4946331;28;20613;-77
2022/10/27 03:28:14;;;;;;;0.50;0.50;;;21.70;66.50;;;21.80;48.68;95874.13;4963603;28;20261;-77
2022/10/27 03:30:42;;;;;;;0.40;0.40;;;21.70;66.50;;;21.75;48.62;95867.66;4946385;28;20237;-77
2022/10/27 03:33:09;;;;;;;0.40;0.40;;;21.70;66.50;;;21.83;49.10;95884.34;4962524;28;20212;-77
2022/10/27 03:35:36;;;;;;;0.40;0.40;;;21.70;66.40;;;21.82;49.10;95886.19;4962325;28;20638;-77
2022/10/27 03:38:03;;;;;;;0.43;0.43;;;21.70;66.40;;;21.82;48.89;95878.16;4962301;28;20210;-77
2022/10/27 03:40:31;;;;;;;0.43;0.43;;;21.70;66.40;;;21.72;49.11;95861.97;4946018;28;20209;-77
2022/10/27 03:42:58;;;;;;;0.40;0.40;;;21.70;66.40;;;21.82;48.71;95886.19;4946131;28;20206;-77
2022/10/27 03:45:28;;;;;;;0.43;0.43;;;21.70;66.40;;;21.82;48.89;95880.84;4946653;28;20629;-77
2022/10/27 03:48:06;;;;;;;0.40;0.40;;;21.70;66.30;;;21.75;48.72;95878.34;4946659;28;20211;-77
2022/10/27 03:50:33;;;;;;;0.47;0.47;;;21.70;66.30;;;21.80;49.16;95882.97;4962487;28;20221;-77
2022/10/27 03:53:02;;;;;;;0.45;0.45;;;21.70;66.30;;;21.81;49.09;95887.22;4961816;28;20198;-77
2022/10/27 03:55:31;;;;;;;0.40;0.40;;;21.70;66.30;;;21.79;49.11;95884.00;4962488;28;20198;-77
2022/10/27 03:57:59;;;;;;;0.40;0.40;;;21.70;66.40;;;21.72;48.73;95870.78;4946160;28;20209;-78
2022/10/27 04:00:27;;;;;;;0.52;0.52;;;21.70;66.40;;;21.78;48.88;95887.72;4961663;28;20211;-78
2022/10/27 04:02:55;;;;;;;0.40;0.40;;;21.70;66.40;;;21.79;48.68;95889.34;4961788;28;20203;-78
2022/10/27 04:05:22;;;;;;;0.40;0.40;;;21.70;66.30;;;21.79;48.71;95886.69;4977818;28;20194;-78
2022/10/27 04:07:50;;;;;;;0.40;0.40;;;21.70;66.30;;;21.77;49.20;95888.75;4945855;28;20198;-78
2022/10/27 04:10:17;;;;;;;0.40;0.40;;;21.70;66.30;;;21.79;48.88;95889.34;4930069;28;20193;-78
2022/10/27 04:12:53;;;;;;;0.30;0.30;;;21.70;66.30;;;21.80;49.02;95896.31;4945505;28;20201;-78
2022/10/27 04:15:24;;;;;;;0.30;0.30;;;21.70;66.30;;;21.80;49.01;95895.47;4961579;28;20194;-78
2022/10/27 04:17:57;;;;;;;0.50;0.50;;;21.70;66.30;;;21.78;49.05;95897.59;4961808;28;20221;-78
2022/10/27 04:20:26;;;;;;;0.40;0.40;;;21.70;66.30;;;21.75;48.90;95890.84;4961394;28;20279;-78
2022/10/27 04:22:57;;;;;;;0.40;0.40;;;21.70;66.30;;;21.79;49.05;95901.88;4961337;28;20693;-78
2022/10/27 04:25:26;;;;;;;0.43;0.43;;;21.70;66.30;;;21.80;48.61;95906.16;4961500;28;20171;-78
2022/10/27 04:28:07;;;;;;;0.40;0.40;;;21.70;66.40;;;21.79;48.90;95901.88;4945774;28;20196;-78
2022/10/27 04:30:36;;;;;;;0.43;0.43;;;21.70;66.30;;;21.74;48.70;95906.06;4961105;28;20225;-78
2022/10/27 04:33:03;;;;;;;0.30;0.30;;;21.70;66.30;;;21.73;48.57;95891.09;4961222;28;20206;-78
2022/10/27 04:35:30;;;;;;;0.35;0.35;;;21.70;66.30;;;21.72;48.63;95892.16;4945588;28;20213;-78
2022/10/27 04:37:58;;;;;;;0.40;0.40;;;21.70;66.30;;;21.77;48.87;95895.97;4961689;28;20209;-78
2022/10/27 04:40:25;;;;;;;0.50;0.50;;;21.70;66.30;;;21.73;48.65;95895.63;4960943;28;20654;-78
2022/10/27 04:42:53;;;;;;;0.40;0.40;;;21.70;66.30;;;21.77;48.89;95901.31;4961286;28;20542;-78
2022/10/27 04:45:20;;;;;;;0.40;0.40;;;21.70;66.30;;;21.73;48.63;95898.31;4961390;28;20204;-78
2022/10/27 04:47:47;;;;;;;0.40;0.40;;;21.70;66.20;;;21.77;48.99;95902.13;4961435;28;20201;-78
2022/10/27 04:50:16;;;;;;;0.40;0.40;;;21.70;66.20;;;21.78;48.95;95901.06;4977346;28;20245;-78
2022/10/27 04:52:58;;;;;;;0.40;0.40;;;21.70;66.20;;;21.76;48.57;95905.84;4945037;28;20217;-78
2022/10/27 04:55:27;;;;;;;0.40;0.40;;;21.70;66.20;;;21.75;48.76;95905.03;4945178;28;20202;-78
2022/10/27 04:57:55;;;;;;;0.50;0.50;;;21.70;66.20;;;21.72;48.73;95900.16;4960957;28;20209;-78
2022/10/27 05:00:22;;;;;;;0.40;0.40;;;21.70;66.20;;;21.75;48.78;95905.03;4961203;28;20205;-78
2022/10/27 05:02:54;;;;;;;0.40;0.40;;;21.70;66.30;;;21.72;48.95;95896.69;4960939;28;20201;-78
2022/10/27 05:05:25;;;;;;;0.40;0.40;;;21.70;66.20;;;21.77;48.99;95904.00;4961551;28;20675;-78
2022/10/27 05:07:55;;;;;;;0.40;0.40;;;21.70;66.30;;;21.74;49.03;95900.75;4944745;28;20251;-78
2022/10/27 05:10:23;;;;;;;0.40;0.40;;;21.70;66.20;;;21.74;49.00;95899.94;4945199;28;20198;-78
2022/10/27 05:12:50;;;;;;;0.40;0.40;;;21.70;66.20;;;21.75;48.90;95906.88;4960605;28;20606;-78
2022/10/27 05:15:18;;;;;;;0.50;0.50;;;21.70;66.20;;;21.76;48.65;95916.50;4960504;28;20272;-78
2022/10/27 05:17:46;;;;;;;0.40;0.40;;;21.70;66.10;;;21.73;48.63;95912.47;4960159;28;20209;-78
2022/10/27 05:20:15;;;;;;;0.50;0.50;;;21.70;66.20;;;21.70;48.88;95906.78;4944787;28;20265;-78
2022/10/27 05:22:43;;;;;;;0.40;0.40;;;21.70;66.10;;;21.69;48.81;95905.16;4960498;28;20197;-78
2022/10/27 05:25:11;;;;;;;0.40;0.40;;;21.70;66.10;;;21.75;48.78;95917.56;4960663;28;20197;-78
2022/10/27 05:27:38;;;;;;;0.40;0.40;;;21.70;66.20;;;21.74;48.64;95919.44;4944284;28;20280;-78
2022/10/27 05:30:07;;;;;;;0.50;0.50;;;21.70;66.10;;;21.70;48.61;95907.63;4960320;28;20240;-78
2022/10/27 05:32:34;;;;;;;0.30;0.30;;;21.70;66.10;;;21.70;48.41;95910.28;4960750;28;20233;-78
2022/10/27 05:35:01;;;;;;;0.40;0.40;;;21.70;66.10;;;21.65;48.62;95904.81;4960657;28;20281;-78
2022/10/27 05:37:29;;;;;;;0.40;0.40;;;21.70;66.20;;;21.74;48.70;95918.63;4977652;28;20205;-78
2022/10/27 05:39:56;;;;;;;0.40;0.40;;;21.60;66.10;;;21.69;48.59;95915.84;4960700;28;20201;-78
2022/10/27 05:42:23;;;;;;;0.47;0.47;;;21.60;66.10;;;21.75;48.72;95928.25;4960541;28;20675;-78
2022/10/27 05:44:51;;;;;;;0.45;0.45;;;21.70;66.10;;;21.65;48.72;95915.50;4960412;28;20303;-78
2022/10/27 05:47:19;;;;;;;0.50;0.50;;;21.70;66.20;;;21.62;48.47;95909.81;4960744;28;20194;-78
2022/10/27 05:49:46;;;;;;;0.50;0.50;;;21.60;66.10;;;21.72;48.84;95937.53;4977566;28;20535;-78
2022/10/27 05:52:13;;;;;;;0.50;0.50;;;21.70;66.10;;;21.73;48.89;95941.03;4944351;28;20230;-78
2022/10/27 05:54:40;;;;;;;0.50;0.50;;;21.70;66.10;;;21.68;48.48;95927.56;4976740;28;20257;-78
2022/10/27 05:57:08;;;;;;;0.50;0.50;;;21.70;66.10;;;21.72;48.41;95931.41;4944658;28;20204;-78
2022/10/27 05:59:35;;;;;;;0.50;0.50;;;21.70;66.10;;;21.70;48.72;95939.66;4976521;28;20198;-78
2022/10/27 06:02:02;;;;;;;0.40;0.40;;;21.70;66.10;;;21.74;48.41;95956.81;4976525;28;20202;-78
2022/10/27 06:04:30;;;;;;;0.50;0.50;;;21.70;66.10;;;21.71;48.53;95951.13;4944519;28;20241;-78
2022/10/27 06:06:57;;;;;;;0.40;0.40;;;21.70;66.10;;;21.73;48.64;95960.53;4976570;28;20206;-78
2022/10/27 06:09:24;;;;;;;0.40;0.40;;;21.60;66.00;;;21.73;48.43;95959.72;4944507;28;20261;-78
2022/10/27 06:11:51;;;;;;;0.40;0.40;;;21.70;66.10;;;21.73;48.85;95949.03;4960395;28;20346;-78
2022/10/27 06:14:18;;;;;;;0.45;0.45;;;21.60;66.00;;;21.75;48.45;95958.44;4960296;28;20201;-78
2022/10/27 06:16:46;;;;;;;0.40;0.40;;;21.70;66.10;;;21.75;48.59;95960.28;4976170;28;20270;-78
2022/10/27 06:19:14;;;;;;;0.40;0.40;;;21.60;66.00;;;21.77;48.66;95962.75;4959869;28;20227;-78
2022/10/27 06:21:41;;;;;;;0.45;0.45;;;21.70;66.10;;;21.77;48.56;95963.53;4944156;28;20201;-78
2022/10/27 06:24:08;;;;;;;0.40;0.40;;;21.70;66.10;;;21.74;48.59;95962.16;4943862;28;20236;-78
2022/10/27 06:26:36;;;;;;;0.40;0.40;;;21.70;66.00;;;21.74;48.61;95956.00;4945147;28;20206;-83
2022/10/27 06:29:03;;;;;;;0.40;0.40;;;21.60;66.00;;;21.73;48.52;95967.75;4959871;28;20213;-78
2022/10/27 06:31:31;;;;;;;0.40;0.40;;;21.60;66.00;;;21.76;48.67;95975.25;4963711;28;20264;-78
2022/10/27 06:33:58;;;;;;;0.40;0.40;;;21.60;66.00;;;21.73;48.46;95970.41;4963686;28;20213;-78
2022/10/27 06:36:26;;;;;;;0.32;0.32;;;21.70;66.10;;;21.75;48.67;95970.97;4963972;28;20194;-78
2022/10/27 06:38:53;;;;;;;0.40;0.40;;;21.60;66.00;;;21.81;48.58;95987.91;4947623;28;20205;-78
2022/10/27 06:41:21;;;;;;;0.40;0.40;;;21.70;66.90;;;21.82;48.58;95990.34;4964197;28;20204;-78
2022/10/27 06:43:48;;;;;;;0.40;0.40;;;21.70;66.00;;;21.79;48.17;95990.00;4963833;28;20217;-77
2022/10/27 06:46:15;;;;;;;0.40;0.40;;;21.70;66.00;;;21.82;48.27;95989.53;4964606;28;20628;-77
2022/10/27 06:48:43;;;;;;;0.50;0.50;;;21.70;66.10;;;21.78;48.57;95983.06;4979972;28;20203;-78
2022/10/27 06:51:10;;;;;;;0.60;0.60;;;21.70;66.00;;;21.81;48.33;95991.38;4963648;28;20197;-78
2022/10/27 06:53:37;;;;;;;0.50;0.50;;;21.70;66.00;;;21.83;48.41;96002.66;4963410;28;20229;-78
2022/10/27 06:56:05;;;;;;;0.40;0.40;;;21.70;66.00;;;21.74;48.48;95980.03;4964062;28;20194;-78
2022/10/27 06:58:38;;;;;;;0.45;0.45;;;21.70;66.00;;;21.80;48.55;95991.63;4963190;28;20201;-77
2022/10/27 07:01:06;;;;;;;0.50;0.50;;;21.70;66.00;;;21.84;48.69;95993.59;4963207;28;20519;-78
2022/10/27 07:03:34;;;;;;;0.30;0.30;;;21.70;66.00;;;21.79;48.49;95990.00;4979685;28;20245;-77
2022/10/27 07:06:01;;;;;;;0.40;0.40;;;21.70;66.00;;;21.81;48.13;95995.91;4948070;28;20206;-78
2022/10/27 07:08:28;;;;;;;0.47;0.47;;;21.70;65.90;;;21.84;48.39;96003.47;4964498;28;20209;-78
2022/10/27 07:10:56;;;;;;;0.40;0.40;;;21.70;66.00;;;21.88;48.36;96004.63;4980151;28;20197;-77
2022/10/27 07:13:24;;;;;;;0.40;0.40;;;21.70;65.90;;;21.89;48.70;96008.91;4962842;28;20228;-78
2022/10/27 07:15:52;;;;;;;0.43;0.43;;;21.70;65.90;;;21.85;48.51;95999.72;4947282;28;20231;-78
2022/10/27 07:18:19;;;;;;;0.40;0.40;;;21.70;65.90;;;21.90;48.61;96002.53;4963214;28;20194;-78
2022/10/27 07:20:48;;;;;;;0.40;0.40;;;21.70;65.90;;;21.91;48.41;96017.50;4947791;28;20201;-78
2022/10/27 07:23:16;;;;;;;0.40;0.40;;;21.70;65.90;;;21.90;48.48;96007.88;4963526;28;20297;-78
2022/10/27 07:25:47;;;;;;;0.40;0.40;;;21.80;66.00;;;21.91;48.36;96010.28;4979924;28;20199;-78
2022/10/27 07:28:16;;;;;;;0.40;0.40;;;21.80;65.90;;;21.86;48.71;95996.00;4963001;28;20200;-77
2022/10/27 07:30:44;;;;;;;0.40;0.40;;;21.80;66.00;;;21.93;48.62;96009.25;4947113;28;20272;-78
2022/10/27 07:33:11;;;;;;;0.40;0.40;;;21.80;65.90;;;21.88;48.32;96010.75;4979630;28;20254;-77
2022/10/27 07:35:39;;;;;;;0.40;0.40;;;21.80;65.90;;;21.92;48.40;96008.44;4946527;28;20202;-78
2022/10/27 07:38:07;;;;;;;0.30;0.30;;;21.80;65.90;;;21.95;48.28;96012.47;4979827;28;20253;-78
2022/10/27 07:40:35;;;;;;;0.40;0.40;;;21.80;65.90;;;21.96;48.28;96017.59;4946563;28;20211;-78
2022/10/27 07:43:03;;;;;;;0.40;0.40;;;21.80;65.90;;;21.96;48.19;96017.59;4962317;28;20663;-78
2022/10/27 07:45:37;;;;;;;0.40;0.40;;;21.80;65.90;;;21.93;47.93;96014.59;4963644;28;20193;-77
2022/10/27 07:48:08;;;;;;;0.40;0.40;;;21.80;65.80;;;21.98;48.17;96022.69;4963045;28;20212;-78
2022/10/27 07:50:35;;;;;;;0.40;0.40;;;21.80;65.80;;;21.99;48.57;96027.00;4946546;28;20205;-77
2022/10/27 07:53:03;;;;;;;0.40;0.40;;;21.80;65.80;;;21.94;48.28;96013.56;4979772;28;20220;-77
2022/10/27 07:55:34;;;;;;;0.40;0.40;;;21.90;65.80;;;21.95;48.40;96020.50;4962905;28;20194;-78
2022/10/27 07:58:02;;;;;;;0.40;0.40;;;21.90;65.80;;;22.01;48.54;96025.72;4963712;28;20520;-79
2022/10/27 08:00:33;;;;;;;0.40;0.40;;;21.90;65.80;;;21.96;48.31;96022.94;4945805;28;20256;-77
2022/10/27 08:03:02;;;;;;;0.40;0.40;;;21.90;65.80;;;22.04;48.34;96038.59;4962237;28;20198;-77
2022/10/27 08:05:32;;;;;;;0.40;0.40;;;21.80;65.70;;;22.04;48.38;96040.47;4946349;28;20591;-78
2022/10/27 08:08:04;;;;;;;0.40;0.40;;;21.90;65.80;;;22.00;48.29;96023.28;4962512;28;20185;-77
2022/10/27 08:10:35;;;;;;;0.40;0.40;;;21.90;65.70;;;22.04;48.28;96038.59;4961691;28;20232;-78
2022/10/27 08:13:03;;;;;;;0.40;0.40;;;21.90;65.70;;;22.05;48.37;96032.19;4946175;28;20202;-78
2022/10/27 08:15:32;;;;;;;0.40;0.40;;;21.90;65.70;;;22.09;48.09;96047.75;4961501;28;20272;-79
2022/10/27 08:18:01;;;;;;;0.32;0.32;;;21.90;65.70;;;22.09;48.17;96042.44;4946546;28;20209;-78
2022/10/27 08:20:36;;;;;;;0.30;0.30;;;21.90;65.70;;;22.05;48.07;96029.53;4947318;28;20210;-78
2022/10/27 08:23:08;;;;;;;0.40;0.40;;;22.00;65.90;;;22.11;48.41;96046.47;4930186;28;20196;-78
2022/10/27 08:25:35;;;;;;;0.40;0.40;;;22.00;65.90;;;22.12;48.03;96033.91;4962936;28;20194;-78
2022/10/27 08:28:02;;;;;;;0.40;0.40;;;22.00;65.90;;;22.10;48.33;96034.16;4977254;28;20204;-77
2022/10/27 08:30:33;;;;;;;0.50;0.50;;;22.00;65.90;;;22.14;48.48;96040.69;4961856;28;20332;-78
2022/10/27 08:33:07;;;;;;;0.40;0.40;;;22.00;65.80;;;22.16;48.31;96035.09;4963245;28;20209;-78
2022/10/27 08:35:35;;;;;;;0.40;0.40;;;22.00;65.90;;;22.18;48.45;96040.97;4977965;28;20245;-77
2022/10/27 08:38:09;;;;;;;0.40;0.40;;;22.00;65.80;;;22.13;48.28;96032.88;4945675;28;20210;-79
2022/10/27 08:41:06;;;;;;;0.40;0.40;;;22.00;65.70;;;22.20;48.08;96053.09;4961119;28;20190;-77
2022/10/27 08:44:13;;;;;;;0.40;0.40;;;22.10;65.80;;;22.20;48.16;96046.91;4923320;29;20521;-78
2022/10/27 08:46:46;;;;;;;0.50;0.50;;;22.10;65.80;;;22.20;48.29;96041.56;4907881;29;20268;-78
2022/10/27 08:49:44;;;;;;;0.45;0.45;;;22.10;65.70;;;22.22;48.29;96052.84;4935794;29;20217;-79
2022/10/27 08:52:41;;;;;;;0.40;0.40;;;22.10;65.70;;;22.23;48.49;96051.78;4941824;28;20202;-78
2022/10/27 08:55:29;;;;;;;0.40;0.40;;;22.20;65.80;;;22.21;48.27;96049.34;4938813;29;20211;-78
2022/10/27 08:58:36;;;;;;;0.40;0.40;;;22.20;65.70;;;22.23;48.45;96046.44;4926395;29;20693;-78
2022/10/27 09:01:14;;;;;;;0.40;0.40;;;22.20;65.80;;;22.26;48.43;96047.84;4941727;29;20183;-78
2022/10/27 09:04:01;;;;;;;0.45;0.45;;;22.20;65.80;;;22.29;48.44;96050.00;4925867;29;20575;-77
2022/10/27 09:06:35;;;;;;;0.50;0.50;;;22.20;65.70;;;22.30;48.40;96049.78;4941363;29;20778;-79
2022/10/27 09:09:35;;;;;;;0.40;0.40;;;22.20;65.70;;;22.28;48.44;96033.19;4925905;29;20604;-79
2022/10/27 09:12:14;;;;;;;0.30;0.30;;;22.20;65.80;;;22.23;48.47;96030.41;4935578;29;20291;-79
2022/10/27 09:14:56;;;;;;;0.45;0.45;;;22.20;65.70;;;22.34;48.06;96042.13;4940994;29;20191;-82
2022/10/27 09:17:30;;;;;;;0.43;0.43;;;22.20;65.70;;;22.36;48.53;96050.69;4956799;29;20233;-80
2022/10/27 09:20:15;;;;;;;0.47;0.47;;;22.20;65.80;;;22.34;48.55;96042.13;4924762;29;20629;-80
2022/10/27 09:22:42;;;;;;;0.50;0.50;;;22.20;65.60;;;22.31;48.42;96035.34;4941613;29;20213;-81
2022/10/27 09:25:18;;;;;;;0.50;0.50;;;22.30;65.80;;;22.34;48.43;96039.44;4941167;29;20221;-80
2022/10/27 09:27:50;;;;;;;0.50;0.50;;;22.30;65.80;;;22.37;48.26;96042.44;4925382;29;20297;-79
2022/10/27 09:30:19;;;;;;;0.45;0.45;;;22.30;65.70;;;22.41;48.32;96050.00;4940958;29;20281;-78
2022/10/27 09:32:51;;;;;;;0.40;0.40;;;22.30;65.80;;;22.42;48.48;96043.63;4941304;29;20227;-79
2022/10/27 09:35:27;;;;;;;0.40;0.40;;;22.30;65.70;;;22.44;48.34;96049.53;4926014;29;20210;-79
2022/10/27 09:37:57;;;;;;;0.40;0.40;;;22.30;65.70;;;22.45;47.93;96048.47;4956704;28;20238;-79
2022/10/27 09:40:30;;;;;;;0.40;0.40;;;22.40;65.70;;;22.48;48.39;96059.50;4975892;28;20588;-79
2022/10/27 09:42:59;;;;;;;0.40;0.40;;;22.40;66.70;;;22.46;48.07;96048.25;4944492;28;20248;-78
2022/10/27 09:45:27;;;;;;;0.40;0.40;;;22.40;65.70;;;22.48;48.54;96058.69;4961413;28;20205;-78
2022/10/27 09:48:03;;;;;;;0.40;0.40;;;22.40;65.70;;;22.52;48.08;96051.81;4925657;29;20277;-78
2022/10/27 09:50:44;;;;;;;0.40;0.40;;;22.40;65.70;;;22.53;48.20;96061.44;4941252;29;20270;-78
2022/10/27 09:53:47;;;;;;;0.50;0.50;;;22.40;65.70;;;22.50;48.34;96053.94;4940868;29;20249;-83
2022/10/27 09:56:24;;;;;;;0.40;0.40;;;22.40;65.70;;;22.54;48.04;96061.22;4913288;28;20212;-78
2022/10/27 09:58:59;;;;;;;0.50;0.50;;;22.40;65.50;;;22.52;48.02;96049.97;4961352;28;20176;-79
2022/10/27 10:01:38;;;;;;;0.43;0.43;;;22.40;65.50;;;22.56;48.06;96063.66;4924273;29;20214;-78
2022/10/27 10:04:22;;;;;;;0.40;0.40;;;22.40;65.40;;;22.55;48.14;96059.34;4909194;29;20246;-78
2022/10/27 10:07:40;;;;;;;0.40;0.40;;;22.40;65.40;;;22.55;48.30;96059.34;4941557;28;20214;-78
2022/10/27 10:10:28;;;;;;;0.40;0.40;;;22.40;65.50;;;22.57;47.95;96064.47;4964840;28;20238;-78
2022/10/27 10:13:03;;;;;;;0.40;0.40;;;22.50;65.50;;;22.57;48.34;96059.94;4943951;29;20305;-78
2022/10/27 10:15:47;;;;;;;0.40;0.40;;;22.50;65.50;;;22.57;48.01;96056.44;4934868;28;20296;-78
2022/10/27 10:18:28;;;;;;;0.40;0.40;;;22.40;65.50;;;22.59;48.28;96049.00;4948104;28;20206;-79
2022/10/27 10:21:13;;;;;;;0.40;0.40;;;22.50;65.50;;;22.61;48.11;96065.63;4948874;28;20233;-79
2022/10/27 10:23:48;;;;;;;0.47;0.47;;;22.50;65.50;;;22.62;48.05;96065.38;4957373;29;20216;-78
2022/10/27 10:26:26;;;;;;;0.40;0.40;;;22.50;65.50;;;22.62;48.12;96057.34;4957693;29;20218;-79
2022/10/27 10:29:08;;;;;;;0.40;0.40;;;22.50;65.50;;;22.63;47.88;96058.97;4911027;29;20255;-79
2022/10/27 10:31:38;;;;;;;0.43;0.43;;;22.50;65.50;;;22.61;48.13;96046.91;4926635;29;20199;-79
2022/10/27 10:34:31;;;;;;;0.40;0.40;;;22.50;65.50;;;22.65;48.20;96058.72;4941999;29;20221;-79
2022/10/27 10:37:03;;;;;;;0.43;0.43;;;22.50;65.50;;;22.66;48.12;96053.13;4912761;29;20210;-78
2022/10/27 10:39:36;;;;;;;0.40;0.40;;;22.50;65.50;;;22.68;48.01;96067.09;4948438;28;20302;-78
2022/10/27 10:42:16;;;;;;;0.40;0.40;;;22.50;65.50;;;22.64;47.98;96057.94;4964505;28;20270;-78
2022/10/27 10:44:48;;;;;;;0.40;0.40;;;22.60;65.50;;;22.69;48.20;96055.34;4946752;29;20218;-81